Portada
METAR-TAF:

METAR-TAF

Aeroports :

Bangkok, Tailàndia

latitud: 13-54-45N, longitud: 100-36-24E, altitud: 4 m

Observació

L'informe es va fer fa 40 minuts, a les 03:00 UTC
Vent 8 kt del Est
Temperatura 29°C
Humitat 55%
Pressió 1015 hPa
Visibilitat 10 km o més
sense núvols per sota de 1500 mi sense presència de cumulonimbus.

METAR: VTBD 210300Z 08008KT CAVOK 29/19 Q1015 NOSIG

Hora: 10:40 (03:40 UTC)

Pronòstic

L'informe es va fer fa 4 hores i 40 minuts, a les 23:00 UTC
Pronòstic vàlid del 21 a les 00 UTC al 22 a les 06 UTC
Vent 8 kt del Est
Visibilitat 10 km o més
Escasses núvols a una alçada de 2500 ft
Evolucionant progressivament
l' 21 a les 20 UTC al 21 a les 22 UTC
Vent 5 kt del Nord/Nord-Est
Evolucionant progressivament
l' 22 a les 02 UTC al 22 a les 04 UTC
Vent 8 kt del Est

TAF: VTBD 202300Z 2100/2206 09008KT 9999 FEW025 BECMG 2120/2122 02005KT BECMG 2202/2204 08008KT

Observacions i pronòstics meteorològics de més de 4000 aeroports (METAR i TAF).

Les estacions disponibles són els punts grocs i vermells al mapa.

Posi el ratolí al punt desitjat per veure el nom de l'estació.

Feu clic per veure les observacions i els pronòstics meteorològics.

Per canviar el mapa: feu clic els botons verds amb una creu de color negre per apropar; al botó verd amb un guió per allunyar la imatge; o en les fletxes verdes per a mapes adjacents.


METAR-TAF: